EZY481Z EGKK-EGPH
Flight info
| Callsign | EZY481Z |
|---|---|
| Flight time | 1h 0m |
| Altitude | 36000 |
| Route | LAM L10 BPK UN601 RIBEL DCT INPIP |
| Aircraft | A320/M-SDE3FGHIRWY/LB1 |
Departure
| Time | 2026-04-20 14:21 |
|---|---|
| Airport | London Gatwick Airport (EGKK) |
Arrival
| Time | 2026-04-20 15:21 |
|---|---|
| Airport | Edinburgh Airport (EGPH) |
| Time | Latitude | Longitude | Altitude | Speed | Heading |
|---|---|---|---|---|---|
| 2026-04-20 14:01 | 51.15574 | -0.17757 | 203 ft | 0 kts | 348° |
| 2026-04-20 14:04 | 51.15559 | -0.17752 | 215 ft | 4 kts | 345° |
| 2026-04-20 14:05 | 51.15534 | -0.17739 | 213 ft | 4 kts | 332° |
| 2026-04-20 14:05 | 51.15514 | -0.17714 | 208 ft | 4 kts | 290° |
| 2026-04-20 14:05 | 51.15511 | -0.17697 | 213 ft | 0 kts | 259° |
| 2026-04-20 14:07 | 51.15511 | -0.17698 | 213 ft | 1 kts | 259° |
| 2026-04-20 14:07 | 51.15508 | -0.17725 | 214 ft | 5 kts | 259° |
| 2026-04-20 14:07 | 51.15502 | -0.17772 | 213 ft | 4 kts | 258° |
| 2026-04-20 14:08 | 51.15497 | -0.17808 | 204 ft | 3 kts | 257° |
| 2026-04-20 14:08 | 51.15492 | -0.17842 | 204 ft | 5 kts | 257° |
| 2026-04-20 14:08 | 51.15485 | -0.17896 | 211 ft | 5 kts | 257° |
| 2026-04-20 14:08 | 51.15478 | -0.17942 | 209 ft | 4 kts | 257° |
| 2026-04-20 14:09 | 51.15473 | -0.17978 | 214 ft | 3 kts | 257° |
| 2026-04-20 14:09 | 51.15469 | -0.18007 | 209 ft | 3 kts | 257° |
| 2026-04-20 14:09 | 51.15465 | -0.18032 | 205 ft | 2 kts | 257° |
| 2026-04-20 14:09 | 51.15463 | -0.18050 | 208 ft | 0 kts | 257° |
| 2026-04-20 14:10 | 51.15463 | -0.18051 | 208 ft | 0 kts | 257° |
| 2026-04-20 14:10 | 51.15463 | -0.18052 | 208 ft | 0 kts | 257° |
| 2026-04-20 14:11 | 51.15459 | -0.18074 | 213 ft | 5 kts | 257° |
| 2026-04-20 14:11 | 51.15453 | -0.18119 | 207 ft | 4 kts | 258° |
| 2026-04-20 14:11 | 51.15447 | -0.18163 | 214 ft | 4 kts | 258° |
| 2026-04-20 14:11 | 51.15442 | -0.18206 | 211 ft | 4 kts | 258° |
| 2026-04-20 14:12 | 51.15437 | -0.18241 | 205 ft | 3 kts | 258° |
| 2026-04-20 14:12 | 51.15410 | -0.18278 | 207 ft | 7 kts | 193° |
| 2026-04-20 14:12 | 51.15364 | -0.18269 | 210 ft | 6 kts | 168° |
| 2026-04-20 14:12 | 51.15320 | -0.18255 | 205 ft | 8 kts | 169° |
| 2026-04-20 14:13 | 51.15259 | -0.18234 | 205 ft | 8 kts | 167° |
| 2026-04-20 14:13 | 51.15207 | -0.18222 | 205 ft | 7 kts | 187° |
| 2026-04-20 14:13 | 51.15185 | -0.18272 | 207 ft | 5 kts | 263° |
| 2026-04-20 14:13 | 51.15181 | -0.18360 | 208 ft | 14 kts | 260° |
| 2026-04-20 14:14 | 51.15161 | -0.18510 | 214 ft | 13 kts | 258° |
| 2026-04-20 14:14 | 51.15141 | -0.18652 | 209 ft | 13 kts | 258° |
| 2026-04-20 14:14 | 51.15123 | -0.18786 | 209 ft | 12 kts | 257° |
| 2026-04-20 14:14 | 51.15105 | -0.18911 | 208 ft | 11 kts | 257° |
| 2026-04-20 14:15 | 51.15090 | -0.19024 | 208 ft | 12 kts | 258° |
| 2026-04-20 14:15 | 51.15073 | -0.19149 | 210 ft | 11 kts | 257° |
| 2026-04-20 14:15 | 51.15056 | -0.19267 | 217 ft | 10 kts | 257° |
| 2026-04-20 14:15 | 51.15041 | -0.19370 | 209 ft | 9 kts | 257° |
| 2026-04-20 14:16 | 51.15026 | -0.19484 | 210 ft | 12 kts | 258° |
| 2026-04-20 14:16 | 51.15000 | -0.19678 | 215 ft | 22 kts | 256° |
| 2026-04-20 14:16 | 51.14965 | -0.19911 | 209 ft | 21 kts | 257° |
| 2026-04-20 14:16 | 51.14937 | -0.20135 | 210 ft | 20 kts | 258° |
| 2026-04-20 14:17 | 51.14908 | -0.20344 | 210 ft | 19 kts | 257° |
| 2026-04-20 14:17 | 51.14880 | -0.20542 | 207 ft | 18 kts | 258° |
| 2026-04-20 14:17 | 51.14855 | -0.20728 | 212 ft | 17 kts | 258° |
| 2026-04-20 14:17 | 51.14831 | -0.20900 | 206 ft | 15 kts | 257° |
| 2026-04-20 14:18 | 51.14809 | -0.21058 | 212 ft | 14 kts | 257° |
| 2026-04-20 14:18 | 51.14784 | -0.21189 | 211 ft | 10 kts | 249° |
| 2026-04-20 14:18 | 51.14766 | -0.21297 | 215 ft | 10 kts | 257° |
| 2026-04-20 14:18 | 51.14744 | -0.21391 | 216 ft | 8 kts | 224° |
| 2026-04-20 14:19 | 51.14691 | -0.21390 | 210 ft | 8 kts | 159° |
| 2026-04-20 14:19 | 51.14652 | -0.21345 | 215 ft | 6 kts | 147° |
| 2026-04-20 14:19 | 51.14613 | -0.21324 | 207 ft | 6 kts | 167° |
| 2026-04-20 14:19 | 51.14574 | -0.21309 | 209 ft | 6 kts | 163° |
| 2026-04-20 14:20 | 51.14533 | -0.21258 | 206 ft | 11 kts | 127° |
| 2026-04-20 14:20 | 51.14520 | -0.21156 | 206 ft | 10 kts | 77° |
| 2026-04-20 14:20 | 51.14539 | -0.21019 | 215 ft | 20 kts | 77° |
| 2026-04-20 14:20 | 51.14620 | -0.20442 | 211 ft | 90 kts | 77° |
| 2026-04-20 14:21 | 51.14799 | -0.19149 | 218 ft | 146 kts | 78° |
| 2026-04-20 14:21 | 51.15027 | -0.17488 | 782 ft | 154 kts | 75° |
| 2026-04-20 14:21 | 51.15269 | -0.15808 | 1668 ft | 158 kts | 76° |
| 2026-04-20 14:21 | 51.15533 | -0.14029 | 2355 ft | 170 kts | 75° |
| 2026-04-20 14:22 | 51.15809 | -0.12166 | 3093 ft | 176 kts | 76° |
| 2026-04-20 14:22 | 51.16082 | -0.10252 | 3799 ft | 180 kts | 76° |
| 2026-04-20 14:22 | 51.16368 | -0.08236 | 4352 ft | 193 kts | 76° |
| 2026-04-20 14:22 | 51.16877 | -0.06193 | 4986 ft | 206 kts | 55° |
| 2026-04-20 14:23 | 51.17759 | -0.04361 | 5742 ft | 215 kts | 51° |
| 2026-04-20 14:23 | 51.18689 | -0.02466 | 6675 ft | 218 kts | 51° |
| 2026-04-20 14:23 | 51.19655 | -0.00496 | 7345 ft | 234 kts | 51° |
| 2026-04-20 14:23 | 51.20674 | 0.01628 | 8022 ft | 248 kts | 52° |
| 2026-04-20 14:24 | 51.21728 | 0.03875 | 8844 ft | 258 kts | 52° |
| 2026-04-20 14:24 | 51.22834 | 0.06211 | 9594 ft | 269 kts | 51° |
| 2026-04-20 14:24 | 51.23989 | 0.08605 | 10493 ft | 274 kts | 51° |
| 2026-04-20 14:24 | 51.24978 | 0.11267 | 11218 ft | 285 kts | 66° |
| 2026-04-20 14:25 | 51.25488 | 0.14379 | 11964 ft | 295 kts | 78° |
| 2026-04-20 14:25 | 51.25837 | 0.17640 | 12764 ft | 301 kts | 78° |
| 2026-04-20 14:25 | 51.26211 | 0.20961 | 13591 ft | 306 kts | 77° |
| 2026-04-20 14:25 | 51.26602 | 0.24331 | 14373 ft | 311 kts | 77° |
| 2026-04-20 14:26 | 51.27094 | 0.27719 | 15191 ft | 314 kts | 66° |
| 2026-04-20 14:26 | 51.28162 | 0.30736 | 15891 ft | 313 kts | 47° |
| 2026-04-20 14:26 | 51.29782 | 0.33036 | 16628 ft | 311 kts | 27° |
| 2026-04-20 14:26 | 51.31761 | 0.34375 | 17367 ft | 309 kts | 9° |
| 2026-04-20 14:27 | 51.33856 | 0.34653 | 18084 ft | 306 kts | 352° |
| 2026-04-20 14:27 | 51.35915 | 0.33877 | 18788 ft | 305 kts | 335° |
| 2026-04-20 14:27 | 51.37885 | 0.32592 | 19416 ft | 306 kts | 335° |
| 2026-04-20 14:27 | 51.39857 | 0.31309 | 20150 ft | 306 kts | 334° |
| 2026-04-20 14:28 | 51.41830 | 0.30036 | 20882 ft | 306 kts | 334° |
| 2026-04-20 14:28 | 51.43805 | 0.28762 | 21610 ft | 306 kts | 333° |
| 2026-04-20 14:28 | 51.45778 | 0.27485 | 22330 ft | 306 kts | 333° |
| 2026-04-20 14:28 | 51.47756 | 0.26198 | 23046 ft | 307 kts | 333° |
| 2026-04-20 14:29 | 51.49736 | 0.24903 | 23758 ft | 307 kts | 332° |
| 2026-04-20 14:29 | 51.51718 | 0.23607 | 24335 ft | 308 kts | 332° |
| 2026-04-20 14:29 | 51.53712 | 0.22304 | 24874 ft | 310 kts | 332° |
| 2026-04-20 14:29 | 51.55718 | 0.20991 | 25406 ft | 312 kts | 332° |
| 2026-04-20 14:30 | 51.57735 | 0.19670 | 25917 ft | 314 kts | 331° |
| 2026-04-20 14:30 | 51.59742 | 0.18354 | 26438 ft | 316 kts | 331° |
| 2026-04-20 14:30 | 51.61660 | 0.17094 | 26914 ft | 318 kts | 330° |
| 2026-04-20 14:30 | 51.63573 | 0.15452 | 27373 ft | 314 kts | 320° |
| 2026-04-20 14:31 | 51.65237 | 0.13185 | 27732 ft | 316 kts | 309° |
| 2026-04-20 14:31 | 51.66571 | 0.10342 | 27869 ft | 325 kts | 301° |
| 2026-04-20 14:31 | 51.67810 | 0.07219 | 28006 ft | 336 kts | 301° |
| 2026-04-20 14:31 | 51.68992 | 0.04257 | 28136 ft | 346 kts | 301° |
| 2026-04-20 14:32 | 51.70314 | 0.00948 | 28312 ft | 356 kts | 301° |
| 2026-04-20 14:32 | 51.71674 | -0.02451 | 28469 ft | 365 kts | 301° |
| 2026-04-20 14:32 | 51.73061 | -0.05913 | 28744 ft | 370 kts | 302° |
| 2026-04-20 14:32 | 51.74646 | -0.09216 | 29109 ft | 375 kts | 310° |
| 2026-04-20 14:33 | 51.76598 | -0.12061 | 29493 ft | 382 kts | 319° |
| 2026-04-20 14:33 | 51.78859 | -0.14384 | 29851 ft | 388 kts | 324° |
| 2026-04-20 14:33 | 51.81197 | -0.16595 | 30203 ft | 391 kts | 324° |
| 2026-04-20 14:33 | 51.83546 | -0.18822 | 30474 ft | 393 kts | 324° |
| 2026-04-20 14:34 | 51.85914 | -0.21074 | 30729 ft | 396 kts | 324° |
| 2026-04-20 14:34 | 51.88298 | -0.23349 | 30980 ft | 400 kts | 324° |
| 2026-04-20 14:34 | 51.90703 | -0.25652 | 31203 ft | 403 kts | 325° |
| 2026-04-20 14:34 | 51.93126 | -0.27970 | 31471 ft | 406 kts | 325° |
| 2026-04-20 14:35 | 51.95562 | -0.30302 | 31798 ft | 407 kts | 325° |
| 2026-04-20 14:35 | 51.97973 | -0.32614 | 32117 ft | 408 kts | 325° |
| 2026-04-20 14:35 | 52.00452 | -0.34996 | 32447 ft | 410 kts | 325° |
| 2026-04-20 14:35 | 52.02874 | -0.37327 | 32761 ft | 411 kts | 326° |
| 2026-04-20 14:36 | 52.05364 | -0.39729 | 33086 ft | 412 kts | 326° |
| 2026-04-20 14:36 | 52.07837 | -0.42114 | 33400 ft | 414 kts | 326° |
| 2026-04-20 14:36 | 52.10284 | -0.44474 | 33719 ft | 415 kts | 326° |
| 2026-04-20 14:36 | 52.12770 | -0.46873 | 34039 ft | 416 kts | 326° |
| 2026-04-20 14:37 | 52.15265 | -0.49285 | 34346 ft | 417 kts | 326° |
| 2026-04-20 14:37 | 52.17762 | -0.51705 | 34629 ft | 419 kts | 326° |
| 2026-04-20 14:37 | 52.20263 | -0.54136 | 34904 ft | 420 kts | 326° |
| 2026-04-20 14:37 | 52.22775 | -0.56581 | 35182 ft | 420 kts | 327° |
| 2026-04-20 14:38 | 52.25289 | -0.59027 | 35441 ft | 422 kts | 327° |
| 2026-04-20 14:38 | 52.27810 | -0.61484 | 35704 ft | 422 kts | 327° |
| 2026-04-20 14:38 | 52.30339 | -0.63952 | 35961 ft | 423 kts | 327° |
| 2026-04-20 14:38 | 52.32865 | -0.66425 | 36196 ft | 425 kts | 327° |
| 2026-04-20 14:39 | 52.37938 | -0.71401 | 36289 ft | 424 kts | 327° |
| 2026-04-20 14:39 | 52.43000 | -0.76371 | 36291 ft | 424 kts | 327° |
| 2026-04-20 14:40 | 52.48066 | -0.81363 | 36290 ft | 425 kts | 327° |
| 2026-04-20 14:40 | 52.53132 | -0.86366 | 36293 ft | 425 kts | 327° |
| 2026-04-20 14:41 | 52.58201 | -0.91377 | 36291 ft | 425 kts | 327° |
| 2026-04-20 14:41 | 52.63272 | -0.96411 | 36272 ft | 426 kts | 327° |
| 2026-04-20 14:42 | 52.68349 | -1.01464 | 36272 ft | 426 kts | 327° |
| 2026-04-20 14:42 | 52.73391 | -1.06498 | 36301 ft | 427 kts | 327° |
| 2026-04-20 14:43 | 52.78464 | -1.11583 | 36302 ft | 427 kts | 327° |
| 2026-04-20 14:43 | 52.83548 | -1.16684 | 36303 ft | 427 kts | 327° |
| 2026-04-20 14:44 | 52.88632 | -1.21796 | 36302 ft | 428 kts | 327° |
| 2026-04-20 14:44 | 52.93713 | -1.26929 | 36298 ft | 428 kts | 327° |
| 2026-04-20 14:45 | 52.97939 | -1.31209 | 36294 ft | 428 kts | 327° |
| 2026-04-20 14:45 | 53.03031 | -1.36372 | 36288 ft | 429 kts | 327° |
| 2026-04-20 14:46 | 53.08127 | -1.41558 | 36284 ft | 429 kts | 327° |
| 2026-04-20 14:46 | 53.13222 | -1.46759 | 36282 ft | 430 kts | 327° |
| 2026-04-20 14:47 | 53.18321 | -1.51973 | 36287 ft | 430 kts | 327° |
| 2026-04-20 14:48 | 53.25979 | -1.59834 | 36293 ft | 431 kts | 327° |
| 2026-04-20 14:48 | 53.31082 | -1.65095 | 36292 ft | 431 kts | 327° |
| 2026-04-20 14:49 | 53.36187 | -1.70377 | 36294 ft | 432 kts | 327° |
| 2026-04-20 14:49 | 53.41266 | -1.75643 | 36291 ft | 432 kts | 327° |
| 2026-04-20 14:50 | 53.46376 | -1.80955 | 36297 ft | 433 kts | 327° |
| 2026-04-20 14:50 | 53.51499 | -1.86283 | 36294 ft | 433 kts | 327° |
| 2026-04-20 14:51 | 53.56556 | -1.91555 | 36298 ft | 433 kts | 327° |
| 2026-04-20 14:51 | 53.61683 | -1.96923 | 36300 ft | 433 kts | 327° |
| 2026-04-20 14:52 | 53.66797 | -2.02310 | 36294 ft | 434 kts | 327° |
| 2026-04-20 14:52 | 53.71917 | -2.07721 | 36295 ft | 434 kts | 327° |
| 2026-04-20 14:53 | 53.77297 | -2.12321 | 36291 ft | 435 kts | 337° |
| 2026-04-20 14:53 | 53.82922 | -2.16149 | 36298 ft | 436 kts | 337° |
| 2026-04-20 14:54 | 53.88527 | -2.19970 | 36295 ft | 436 kts | 337° |
| 2026-04-20 14:54 | 53.94165 | -2.23823 | 36300 ft | 437 kts | 337° |
| 2026-04-20 14:55 | 53.99799 | -2.27700 | 36298 ft | 437 kts | 337° |
| 2026-04-20 14:55 | 54.05436 | -2.31587 | 36302 ft | 437 kts | 337° |
| 2026-04-20 14:56 | 54.11079 | -2.35485 | 36311 ft | 438 kts | 337° |
| 2026-04-20 14:56 | 54.16738 | -2.39412 | 36312 ft | 439 kts | 337° |
| 2026-04-20 14:57 | 54.22397 | -2.43339 | 36317 ft | 439 kts | 337° |
| 2026-04-20 14:57 | 54.28023 | -2.47269 | 36320 ft | 440 kts | 337° |
| 2026-04-20 14:58 | 54.33684 | -2.51245 | 36320 ft | 440 kts | 337° |
| 2026-04-20 14:58 | 54.36519 | -2.53238 | 36187 ft | 440 kts | 337° |
| 2026-04-20 14:58 | 54.39350 | -2.55227 | 35968 ft | 440 kts | 337° |
| 2026-04-20 14:58 | 54.42182 | -2.57218 | 35720 ft | 439 kts | 337° |
| 2026-04-20 14:59 | 54.45011 | -2.59206 | 35486 ft | 439 kts | 337° |
| 2026-04-20 14:59 | 54.47835 | -2.61192 | 35253 ft | 439 kts | 337° |
| 2026-04-20 14:59 | 54.50656 | -2.63179 | 35019 ft | 438 kts | 337° |
| 2026-04-20 14:59 | 54.53480 | -2.65173 | 34788 ft | 438 kts | 337° |
| 2026-04-20 15:00 | 54.56297 | -2.67172 | 34283 ft | 439 kts | 337° |
| 2026-04-20 15:00 | 54.59139 | -2.69198 | 33148 ft | 445 kts | 337° |
| 2026-04-20 15:00 | 54.62014 | -2.71252 | 32136 ft | 449 kts | 337° |
| 2026-04-20 15:00 | 54.64895 | -2.73307 | 31474 ft | 445 kts | 337° |
| 2026-04-20 15:01 | 54.67738 | -2.75334 | 30851 ft | 440 kts | 337° |
| 2026-04-20 15:01 | 54.70556 | -2.77342 | 30162 ft | 436 kts | 337° |
| 2026-04-20 15:01 | 54.73333 | -2.79326 | 29506 ft | 429 kts | 337° |
| 2026-04-20 15:01 | 54.76069 | -2.81282 | 28897 ft | 422 kts | 337° |
| 2026-04-20 15:02 | 54.78768 | -2.83215 | 28275 ft | 416 kts | 337° |
| 2026-04-20 15:02 | 54.81423 | -2.85117 | 27691 ft | 411 kts | 337° |
| 2026-04-20 15:02 | 54.84048 | -2.87006 | 27102 ft | 405 kts | 337° |
| 2026-04-20 15:02 | 54.86638 | -2.88878 | 26518 ft | 401 kts | 337° |
| 2026-04-20 15:03 | 54.89163 | -2.90700 | 25968 ft | 396 kts | 337° |
| 2026-04-20 15:03 | 54.91699 | -2.92527 | 25418 ft | 393 kts | 337° |
| 2026-04-20 15:03 | 54.94214 | -2.94342 | 24871 ft | 390 kts | 337° |
| 2026-04-20 15:03 | 54.96707 | -2.96146 | 24321 ft | 387 kts | 337° |
| 2026-04-20 15:04 | 54.99181 | -2.97939 | 23770 ft | 384 kts | 337° |
| 2026-04-20 15:04 | 55.01632 | -2.99718 | 23082 ft | 379 kts | 337° |
| 2026-04-20 15:04 | 55.04060 | -3.01481 | 21953 ft | 376 kts | 337° |
| 2026-04-20 15:04 | 55.06459 | -3.03228 | 20898 ft | 372 kts | 337° |
| 2026-04-20 15:05 | 55.08829 | -3.04958 | 20198 ft | 367 kts | 337° |
| 2026-04-20 15:05 | 55.11183 | -3.06673 | 19722 ft | 366 kts | 337° |
| 2026-04-20 15:05 | 55.13532 | -3.08385 | 19234 ft | 365 kts | 337° |
| 2026-04-20 15:05 | 55.15865 | -3.10093 | 18730 ft | 363 kts | 337° |
| 2026-04-20 15:06 | 55.18198 | -3.11809 | 18199 ft | 363 kts | 337° |
| 2026-04-20 15:06 | 55.20520 | -3.13518 | 17689 ft | 361 kts | 337° |
| 2026-04-20 15:06 | 55.22827 | -3.15213 | 17192 ft | 358 kts | 338° |
| 2026-04-20 15:06 | 55.25118 | -3.16897 | 16699 ft | 356 kts | 337° |
| 2026-04-20 15:07 | 55.27398 | -3.18580 | 16190 ft | 354 kts | 338° |
| 2026-04-20 15:07 | 55.29635 | -3.20232 | 15721 ft | 353 kts | 338° |
| 2026-04-20 15:07 | 55.31888 | -3.21894 | 15249 ft | 351 kts | 338° |
| 2026-04-20 15:07 | 55.34133 | -3.23554 | 14749 ft | 349 kts | 338° |
| 2026-04-20 15:08 | 55.36368 | -3.25206 | 14266 ft | 348 kts | 338° |
| 2026-04-20 15:08 | 55.38577 | -3.26842 | 14016 ft | 339 kts | 338° |
| 2026-04-20 15:08 | 55.40706 | -3.28424 | 13927 ft | 326 kts | 338° |
| 2026-04-20 15:08 | 55.42761 | -3.29953 | 13788 ft | 315 kts | 338° |
| 2026-04-20 15:09 | 55.44750 | -3.31435 | 13648 ft | 306 kts | 338° |
| 2026-04-20 15:09 | 55.46683 | -3.32874 | 13524 ft | 297 kts | 338° |
| 2026-04-20 15:09 | 55.48555 | -3.34270 | 13389 ft | 288 kts | 338° |
| 2026-04-20 15:09 | 55.50302 | -3.35886 | 13249 ft | 281 kts | 325° |
| 2026-04-20 15:10 | 55.51841 | -3.38064 | 12733 ft | 287 kts | 320° |
| 2026-04-20 15:10 | 55.53377 | -3.40340 | 12284 ft | 290 kts | 320° |
| 2026-04-20 15:10 | 55.54912 | -3.42635 | 11838 ft | 287 kts | 320° |
| 2026-04-20 15:10 | 55.56413 | -3.44881 | 11410 ft | 279 kts | 320° |
| 2026-04-20 15:11 | 55.57878 | -3.47065 | 10987 ft | 272 kts | 320° |
| 2026-04-20 15:11 | 55.59317 | -3.49213 | 10358 ft | 273 kts | 320° |
| 2026-04-20 15:11 | 55.60766 | -3.51375 | 9805 ft | 270 kts | 320° |
| 2026-04-20 15:11 | 55.62179 | -3.53488 | 9382 ft | 261 kts | 320° |
| 2026-04-20 15:12 | 55.63525 | -3.55501 | 8988 ft | 253 kts | 320° |
| 2026-04-20 15:12 | 55.64849 | -3.57480 | 8616 ft | 253 kts | 320° |
| 2026-04-20 15:12 | 55.66195 | -3.59489 | 8230 ft | 253 kts | 320° |
| 2026-04-20 15:12 | 55.67525 | -3.61476 | 7843 ft | 254 kts | 320° |
| 2026-04-20 15:13 | 55.68881 | -3.63503 | 7443 ft | 255 kts | 320° |
| 2026-04-20 15:13 | 55.70240 | -3.65516 | 7065 ft | 255 kts | 320° |
| 2026-04-20 15:13 | 55.71618 | -3.67515 | 6674 ft | 256 kts | 321° |
| 2026-04-20 15:13 | 55.73001 | -3.69509 | 6259 ft | 256 kts | 321° |
| 2026-04-20 15:14 | 55.74379 | -3.71500 | 5885 ft | 255 kts | 321° |
| 2026-04-20 15:14 | 55.75727 | -3.73493 | 5691 ft | 246 kts | 319° |
| 2026-04-20 15:14 | 55.76940 | -3.75530 | 5616 ft | 234 kts | 316° |
| 2026-04-20 15:14 | 55.78070 | -3.77549 | 5477 ft | 227 kts | 316° |
| 2026-04-20 15:15 | 55.79376 | -3.78936 | 5348 ft | 216 kts | 353° |
| 2026-04-20 15:15 | 55.80792 | -3.78432 | 5267 ft | 210 kts | 38° |
| 2026-04-20 15:15 | 55.81693 | -3.76442 | 5096 ft | 209 kts | 63° |
| 2026-04-20 15:15 | 55.82402 | -3.74183 | 4814 ft | 210 kts | 62° |
| 2026-04-20 15:16 | 55.83145 | -3.71946 | 4519 ft | 211 kts | 60° |
| 2026-04-20 15:16 | 55.83910 | -3.69709 | 4243 ft | 212 kts | 60° |
| 2026-04-20 15:16 | 55.84680 | -3.67469 | 3950 ft | 212 kts | 60° |
| 2026-04-20 15:16 | 55.85449 | -3.65232 | 3660 ft | 211 kts | 60° |
| 2026-04-20 15:17 | 55.86208 | -3.63019 | 3357 ft | 206 kts | 60° |
| 2026-04-20 15:17 | 55.86940 | -3.60885 | 3107 ft | 196 kts | 59° |
| 2026-04-20 15:17 | 55.87617 | -3.58909 | 2845 ft | 184 kts | 60° |
| 2026-04-20 15:17 | 55.88268 | -3.57008 | 2585 ft | 174 kts | 60° |
| 2026-04-20 15:18 | 55.88879 | -3.55222 | 2348 ft | 163 kts | 61° |
| 2026-04-20 15:18 | 55.89439 | -3.53584 | 2143 ft | 146 kts | 60° |
| 2026-04-20 15:18 | 55.89938 | -3.52123 | 1937 ft | 132 kts | 61° |
| 2026-04-20 15:18 | 55.90406 | -3.50751 | 1753 ft | 127 kts | 62° |
| 2026-04-20 15:19 | 55.90861 | -3.49418 | 1582 ft | 126 kts | 61° |
| 2026-04-20 15:19 | 55.91313 | -3.48089 | 1411 ft | 126 kts | 62° |
| 2026-04-20 15:19 | 55.91764 | -3.46766 | 1222 ft | 125 kts | 61° |
| 2026-04-20 15:19 | 55.92214 | -3.45444 | 1041 ft | 125 kts | 61° |
| 2026-04-20 15:20 | 55.92663 | -3.44131 | 845 ft | 124 kts | 60° |
| 2026-04-20 15:20 | 55.93110 | -3.42821 | 691 ft | 124 kts | 59° |
| 2026-04-20 15:20 | 55.93557 | -3.41508 | 544 ft | 124 kts | 60° |
| 2026-04-20 15:20 | 55.93998 | -3.40202 | 319 ft | 123 kts | 60° |
| 2026-04-20 15:21 | 55.94444 | -3.38900 | 201 ft | 123 kts | 61° |
| 2026-04-20 15:21 | 55.94864 | -3.37643 | 112 ft | 106 kts | 60° |
| 2026-04-20 15:21 | 55.95159 | -3.36778 | 114 ft | 57 kts | 58° |
| 2026-04-20 15:21 | 55.95260 | -3.36474 | 112 ft | 12 kts | 71° |
| 2026-04-20 15:22 | 55.95239 | -3.36395 | 112 ft | 5 kts | 143° |
| 2026-04-20 15:22 | 55.95229 | -3.36385 | 113 ft | 0 kts | 152° |
| 2026-04-20 15:22 | 55.95199 | -3.36357 | 112 ft | 5 kts | 152° |
| 2026-04-20 15:22 | 55.95175 | -3.36333 | 114 ft | 3 kts | 150° |
| 2026-04-20 15:23 | 55.95153 | -3.36301 | 115 ft | 5 kts | 130° |
| 2026-04-20 15:23 | 55.95135 | -3.36228 | 115 ft | 8 kts | 110° |
| 2026-04-20 15:23 | 55.95114 | -3.36113 | 115 ft | 11 kts | 108° |
| 2026-04-20 15:23 | 55.95085 | -3.35966 | 116 ft | 14 kts | 113° |
| 2026-04-20 15:24 | 55.95047 | -3.35818 | 116 ft | 12 kts | 96° |
| 2026-04-20 15:24 | 55.95044 | -3.35661 | 116 ft | 15 kts | 117° |
| 2026-04-20 15:24 | 55.94989 | -3.35480 | 113 ft | 18 kts | 118° |
| 2026-04-20 15:24 | 55.94927 | -3.35277 | 116 ft | 17 kts | 119° |
| 2026-04-20 15:25 | 55.94867 | -3.35079 | 115 ft | 19 kts | 118° |
| 2026-04-20 15:25 | 55.94798 | -3.34933 | 116 ft | 13 kts | 174° |
| 2026-04-20 15:25 | 55.94722 | -3.35008 | 114 ft | 12 kts | 211° |
| 2026-04-20 15:25 | 55.94660 | -3.35071 | 114 ft | 0 kts | 214° |
| 2026-04-20 15:26 | 55.94662 | -3.35084 | 115 ft | 3 kts | 279° |
| 2026-04-20 15:26 | 55.94688 | -3.35115 | 113 ft | 5 kts | 331° |
| 2026-04-20 15:26 | 55.94719 | -3.35164 | 115 ft | 6 kts | 304° |
| 2026-04-20 15:26 | 55.94739 | -3.35229 | 115 ft | 8 kts | 298° |
| 2026-04-20 15:27 | 55.94756 | -3.35307 | 114 ft | 5 kts | 263° |
| 2026-04-20 15:27 | 55.94730 | -3.35343 | 115 ft | 5 kts | 208° |
| 2026-04-20 15:27 | 55.94714 | -3.35359 | 115 ft | 1 kts | 209° |
| 2026-04-20 15:27 | 55.94710 | -3.35364 | 116 ft | 0 kts | 209° |